»·PEaware :: LXJ284 KSNA-KEGE

LXJ284 :: KSNA-KEGE

FLIGHT INFORMATION

Flight Status: Arrived
Operator: Unknown
More flights by this operator :: More flights under this callsign
Pilot: Craig H. (6968)
Aircraft: BOMBARDIER BD-100 CHALLENGER 300
(CL30)
More flights by this aircraft type
Origin: KSNA John Wayne-Orange Co
United States
Destination: KEGE Eagle Co Regl
United States
More flights between these airports :: More routes between these airports
Route: MUSEL8 DAG J146 DICEE DVC RIL RLG
File this flight plan on PilotEdge
Remarks:
Altitude:
(Current/Filed)
37,000ft
Speed:
(Current/Filed)
400kts
Departed: 26-Aug-19 08:06 AM
Arrived: 26-Aug-19 09:47 AM
Distance/Time
Traveled:
637nm/1:41
Distance/Time
To Go:
Arrived

Flight Plot

Page will automatically refresh every two minutes.

Flight plan parsing failed; only flown route is shown


Map Options




Map Legend


Flown Route
Filed Route
Departure Airport
Arrival Airport
Navaid (VOR, NDB)
Fix

Horizontal Profiles

Position Reports

Time Latitude Longitude Heading Altitude Ground
Speed
26-Aug-19 07:44 33.666225 -117.873056 124 63ft 0kts
26-Aug-19 07:45 33.666225 -117.873056 124 63ft 0kts
26-Aug-19 07:46 33.666225 -117.873056 124 63ft 0kts
26-Aug-19 07:47 33.666225 -117.873056 124 63ft 0kts
26-Aug-19 07:48 33.666225 -117.873056 124 63ft 0kts
26-Aug-19 07:49 33.666225 -117.873056 124 63ft 0kts
26-Aug-19 07:50 33.666225 -117.873056 124 63ft 0kts
26-Aug-19 07:51 33.666225 -117.873056 124 63ft 0kts
26-Aug-19 07:52 33.666225 -117.873056 124 63ft 0kts
26-Aug-19 07:53 33.666225 -117.873055 124 63ft 0kts
26-Aug-19 07:54 33.666225 -117.873055 124 63ft 0kts
26-Aug-19 07:55 33.666225 -117.873055 124 63ft 0kts
26-Aug-19 07:57 33.666176 -117.873009 155 63ft 0kts
26-Aug-19 07:58 33.666136 -117.873240 301 63ft 0kts
26-Aug-19 07:59 33.666136 -117.873240 301 63ft 0kts
26-Aug-19 08:00 33.666885 -117.873130 34 63ft 8kts
26-Aug-19 08:01 33.669858 -117.870168 40 63ft 17kts
26-Aug-19 08:02 33.674172 -117.866440 27 63ft 17kts
26-Aug-19 08:03 33.677697 -117.864213 27 63ft 16kts
26-Aug-19 08:04 33.680757 -117.863340 294 63ft 10kts
26-Aug-19 08:05 33.681248 -117.864434 296 63ft 5kts
26-Aug-19 08:06 33.668373 -117.873575 208 537ft 169kts
26-Aug-19 08:07 33.608951 -117.893909 188 4220ft 264kts
26-Aug-19 08:08 33.535670 -117.907224 189 5679ft 256kts
26-Aug-19 08:09 33.503367 -117.964485 304 7010ft 262kts
26-Aug-19 08:10 33.561131 -118.007006 350 7598ft 242kts
26-Aug-19 08:11 33.634955 -118.022693 350 10688ft 309kts
26-Aug-19 08:12 33.727403 -118.042640 351 14047ft 358kts
26-Aug-19 08:13 33.820507 -118.019494 36 17231ft 363kts
26-Aug-19 08:13 33.889411 -117.958703 38 19469ft 375kts
26-Aug-19 08:15 33.988932 -117.868483 39 22920ft 396kts
26-Aug-19 08:16 34.078653 -117.784966 47 25386ft 415kts
26-Aug-19 08:16 34.144793 -117.697653 49 27107ft 430kts
26-Aug-19 08:18 34.240132 -117.569016 49 29172ft 447kts
26-Aug-19 08:18 34.308614 -117.476278 49 30884ft 446kts
26-Aug-19 08:19 34.390597 -117.364932 49 32867ft 442kts
26-Aug-19 08:21 34.484817 -117.236526 49 35174ft 433kts
26-Aug-19 08:21 34.550591 -117.146588 49 36822ft 423kts
26-Aug-19 08:22 34.630870 -117.036521 48 37111ft 455kts
26-Aug-19 08:23 34.717802 -116.916945 48 37066ft 487kts
26-Aug-19 08:24 34.808842 -116.791270 48 37017ft 505kts
26-Aug-19 08:25 34.901647 -116.662690 48 37013ft 507kts
26-Aug-19 08:26 34.996504 -116.535890 45 37022ft 508kts
26-Aug-19 08:27 35.095532 -116.412369 45 37028ft 508kts
26-Aug-19 08:28 35.194078 -116.289054 45 37023ft 508kts
26-Aug-19 08:29 35.292561 -116.165362 45 37027ft 506kts
26-Aug-19 08:30 35.391148 -116.041084 45 37017ft 507kts
26-Aug-19 08:31 35.489146 -115.917069 45 37023ft 506kts
26-Aug-19 08:32 35.586903 -115.792920 45 37024ft 505kts
26-Aug-19 08:33 35.684249 -115.668817 45 37027ft 505kts
26-Aug-19 08:34 35.781804 -115.543967 45 37027ft 505kts
26-Aug-19 08:35 35.878945 -115.419187 45 37033ft 504kts
26-Aug-19 08:36 35.976176 -115.293826 45 37032ft 504kts
26-Aug-19 08:37 36.069277 -115.164902 57 36996ft 506kts
26-Aug-19 08:38 36.126636 -115.005667 68 36989ft 506kts
26-Aug-19 08:39 36.177353 -114.842621 68 36986ft 506kts
26-Aug-19 08:40 36.227301 -114.679710 68 36989ft 507kts
26-Aug-19 08:41 36.276926 -114.516842 68 37023ft 507kts
26-Aug-19 08:42 36.326609 -114.352822 68 37035ft 508kts
26-Aug-19 08:43 36.376170 -114.188252 69 37041ft 508kts
26-Aug-19 08:44 36.425329 -114.024047 69 37050ft 508kts
26-Aug-19 08:45 36.474163 -113.859955 68 37077ft 508kts
26-Aug-19 08:46 36.523097 -113.694594 68 37088ft 510kts
26-Aug-19 08:47 36.571572 -113.529787 68 37148ft 508kts
26-Aug-19 08:48 36.619849 -113.364681 68 37165ft 508kts
26-Aug-19 08:49 36.667826 -113.199415 69 37180ft 507kts
26-Aug-19 08:50 36.715521 -113.034082 69 37199ft 507kts
26-Aug-19 08:51 36.762890 -112.868892 69 37224ft 506kts
26-Aug-19 08:52 36.810132 -112.703126 69 37228ft 507kts
26-Aug-19 08:53 36.857053 -112.537473 69 37231ft 507kts
26-Aug-19 08:54 36.903827 -112.371110 69 37238ft 508kts
26-Aug-19 08:55 36.950582 -112.204131 69 37227ft 508kts
26-Aug-19 08:56 36.997003 -112.037385 69 37196ft 509kts
26-Aug-19 08:57 37.043153 -111.870577 69 37198ft 509kts
26-Aug-19 08:58 37.089303 -111.702714 69 37173ft 510kts
26-Aug-19 08:59 37.135304 -111.534334 69 37160ft 511kts
26-Aug-19 09:00 37.181120 -111.365557 69 37159ft 512kts
26-Aug-19 09:01 37.226664 -111.196603 70 37166ft 512kts
26-Aug-19 09:02 37.271956 -111.027421 70 37184ft 513kts
26-Aug-19 09:03 37.317171 -110.857389 70 37200ft 514kts
26-Aug-19 09:04 37.362068 -110.687453 70 37216ft 514kts
26-Aug-19 09:05 37.406898 -110.516620 69 37229ft 515kts
26-Aug-19 09:06 37.451463 -110.345665 70 37239ft 515kts
26-Aug-19 09:07 37.495765 -110.174563 70 37242ft 514kts
26-Aug-19 09:08 37.539768 -110.003463 70 37251ft 514kts
26-Aug-19 09:09 37.583475 -109.832354 70 37254ft 514kts
26-Aug-19 09:10 37.626950 -109.661000 70 37261ft 514kts
26-Aug-19 09:11 37.670235 -109.489160 70 37266ft 513kts
26-Aug-19 09:12 37.713153 -109.317668 71 37256ft 513kts
26-Aug-19 09:13 37.755840 -109.145864 71 37243ft 512kts
26-Aug-19 09:14 37.806795 -108.978972 56 37236ft 507kts
26-Aug-19 09:15 37.908128 -108.862684 24 37235ft 493kts
26-Aug-19 09:16 38.028709 -108.779865 24 36974ft 500kts
26-Aug-19 09:17 38.151375 -108.695123 24 35996ft 503kts
26-Aug-19 09:18 38.272689 -108.610899 24 35013ft 495kts
26-Aug-19 09:19 38.392742 -108.527238 24 33968ft 493kts
26-Aug-19 09:20 38.512215 -108.443653 24 32705ft 494kts
26-Aug-19 09:21 38.632559 -108.359146 24 31437ft 495kts
26-Aug-19 09:22 38.751563 -108.275243 24 30141ft 494kts
26-Aug-19 09:23 38.871175 -108.190610 24 28827ft 492kts
26-Aug-19 09:24 38.990348 -108.105942 24 27508ft 488kts
26-Aug-19 09:25 39.108565 -108.021628 24 26193ft 483kts
26-Aug-19 09:26 39.224607 -107.938550 24 24906ft 476kts
26-Aug-19 09:27 39.338700 -107.856560 23 23552ft 464kts
26-Aug-19 09:28 39.449632 -107.776547 23 22063ft 453kts
26-Aug-19 09:29 39.543499 -107.672925 57 20543ft 464kts
26-Aug-19 09:30 39.599688 -107.530183 59 19043ft 426kts
26-Aug-19 09:31 39.644772 -107.411113 59 17722ft 403kts
26-Aug-19 09:32 39.691739 -107.285747 60 17136ft 366kts
26-Aug-19 09:33 39.734950 -107.170086 59 16665ft 355kts
26-Aug-19 09:34 39.778871 -107.054705 59 16043ft 350kts
26-Aug-19 09:35 39.820197 -106.945222 59 16035ft 323kts
26-Aug-19 09:36 39.857816 -106.843590 59 15572ft 314kts
26-Aug-19 09:37 39.897390 -106.739181 59 14192ft 325kts
26-Aug-19 09:38 39.879096 -106.647062 162 14077ft 274kts
26-Aug-19 09:39 39.813338 -106.605742 176 13993ft 248kts
26-Aug-19 09:40 39.748243 -106.623569 202 13101ft 244kts
26-Aug-19 09:41 39.684048 -106.648007 206 12016ft 239kts
26-Aug-19 09:42 39.666150 -106.717261 263 11298ft 204kts
26-Aug-19 09:43 39.657004 -106.784117 261 10082ft 168kts
26-Aug-19 09:44 39.650813 -106.841652 263 8273ft 150kts
26-Aug-19 09:45 39.645266 -106.892706 262 6770ft 132kts
26-Aug-19 09:46 39.641675 -106.922807 193 6552ft 21kts
26-Aug-19 09:47 39.641234 -106.919615 82 6552ft 22kts
26-Aug-19 09:48 39.642034 -106.912218 83 6552ft 16kts
26-Aug-19 09:49 39.641555 -106.909098 204 6552ft 9kts

Navigation Log

Ident Type
Flight plan parsing failed, navigation log unavailable